Terminal Aerodrome Forecast
Issued by NWS

Home | Current Version | Previous Version | Text Only | Print | Product List | Glossary On
Versions: 1 2 3 4 5 6 7 8 9 10 11 12 13 14 15 16 17 18 19 20 21 22 23
000
FTUS42 KMFL 192118 AAB
TAFOPF
TAF AMD
KOPF 192118Z 1921/2018 10008KT P6SM VCSH FEW030 SCT050
     FM200200 VRB03KT P6SM FEW030
     FM201400 16008KT P6SM SCT030=

USA.gov is the U.S. government's official web portal to all federal, state and local government web resources and services.